Time;durP1;ratioP1;P1;durP2;ratioP2;P2;SDS_P1;SDS_P2;PMS_P1;PMS_P2;Temp;Humidity;BMP_temperature;BMP_pressure;BME280_temperature;BME280_humidity;BME280_pressure;Samples;Min_cycle;Max_cycle;Signal;HPM_P1;HPM_P2
2023/12/04 00:03:37;;;;;;;;;;;;;;;;;;;;;
2023/12/04 00:40:01;;;;;;;;;;;;;;;;;;;;;
2023/12/04 00:42:53;;;;;;;8.10;5.10;;;;;;;;;;6107953;23;20393;-88
2023/12/04 00:45:34;;;;;;;;;;;;;;;;;;;;;
2023/12/04 01:12:30;;;;;;;12.10;7.60;;;;;;;;;;6169300;23;20458;-88
2023/12/04 01:15:53;;;;;;;;;;;;;;;;;;;;;
2023/12/04 01:21:59;;;;;;;5.53;3.83;;;;;;;;;;6196998;23;20438;-87
2023/12/04 01:28:40;;;;;;;11.07;8.00;;;;;;;;;;5975406;24;20412;-86
2023/12/04 01:41:45;;;;;;;10.63;6.80;;;;;;;;;;6029518;23;20371;-87
2023/12/04 01:44:12;;;;;;;11.37;7.70;;;;;;;;;;6092106;23;20389;-87
2023/12/04 02:09:59;;;;;;;10.20;7.77;;;;;;;;;;6186324;23;20564;-88
2023/12/04 02:13:07;;;;;;;;;;;;;;;;;;;;;
2023/12/04 02:16:21;;;;;;;12.93;8.00;;;;;;;;;;6106393;23;20433;-89
2023/12/04 02:28:08;;;;;;;9.70;5.00;;;;;;;;;;6085440;23;20457;-88
2023/12/04 02:30:48;;;;;;;8.57;5.23;;;;;;;;;;6065337;23;20422;-86
2023/12/04 02:33:27;;;;;;;8.00;6.43;;;;;;;;;;6140967;23;20485;-87
2023/12/04 02:36:02;;;;;;;9.90;6.83;;;;;;;;;;6172099;23;20437;-88
2023/12/04 02:38:36;;;;;;;9.07;6.67;;;;;;;;;;6172680;23;20479;-86
2023/12/04 02:41:20;;;;;;;11.97;5.30;;;;;;;;;;6172044;23;20417;-86
2023/12/04 02:43:56;;;;;;;12.77;6.97;;;;;;;;;;6172775;23;20418;-86
2023/12/04 02:46:26;;;;;;;10.50;6.07;;;;;;;;;;6172690;23;20462;-87
2023/12/04 02:49:06;;;;;;;11.80;6.50;;;;;;;;;;6170680;23;20491;-88
2023/12/04 02:51:39;;;;;;;9.90;5.80;;;;;;;;;;6146476;23;20399;-87
2023/12/04 02:54:15;;;;;;;10.27;6.70;;;;;;;;;;6170459;23;20448;-87
2023/12/04 02:57:14;;;;;;;9.60;6.57;;;;;;;;;;6145731;23;20434;-87
2023/12/04 02:59:43;;;;;;;9.23;7.17;;;;;;;;;;6155017;23;20430;-86
2023/12/04 03:02:16;;;;;;;9.90;6.60;;;;;;;;;;6156698;23;20414;-88
2023/12/04 03:04:46;;;;;;;8.50;6.10;;;;;;;;;;6164794;23;20454;-88
2023/12/04 03:10:11;;;;;;;6.63;5.20;;;;;;;;;;6160618;23;20446;-86
2023/12/04 03:12:45;;;;;;;7.40;5.97;;;;;;;;;;6169371;23;20494;-87
2023/12/04 03:15:12;;;;;;;11.67;6.43;;;;;;;;;;6170285;23;20406;-87
2023/12/04 03:17:42;;;;;;;10.03;6.80;;;;;;;;;;6170575;23;20434;-86
2023/12/04 03:20:20;;;;;;;7.83;5.43;;;;;;;;;;6170653;23;20507;-85
2023/12/04 03:22:51;;;;;;;9.90;6.27;;;;;;;;;;6170897;23;20411;-88
2023/12/04 03:25:33;;;;;;;;;;;;;;;;;;;;;
2023/12/04 03:28:24;;;;;;;7.20;4.90;;;;;;;;;;6205123;23;20401;-86
2023/12/04 03:31:05;;;;;;;8.77;7.20;;;;;;;;;;6180427;23;20449;-88
2023/12/04 03:33:39;;;;;;;9.13;6.20;;;;;;;;;;6179521;23;20513;-87
2023/12/04 03:36:23;;;;;;;9.53;5.90;;;;;;;;;;6181936;23;20809;-85
2023/12/04 03:42:10;;;;;;;10.80;7.20;;;;;;;;;;6194003;23;20406;-88
2023/12/04 03:44:46;;;;;;;8.23;5.20;;;;;;;;;;6202145;23;20405;-88
2023/12/04 03:47:21;;;;;;;11.40;7.43;;;;;;;;;;6179224;23;20414;-86
2023/12/04 03:50:00;;;;;;;8.27;6.40;;;;;;;;;;6180862;23;20433;-87
2023/12/04 03:52:36;;;;;;;10.70;6.77;;;;;;;;;;6176497;23;20406;-88
2023/12/04 03:55:04;;;;;;;10.17;7.13;;;;;;;;;;6162116;23;20466;-86
2023/12/04 03:57:43;;;;;;;12.10;7.57;;;;;;;;;;6173781;23;20447;-88
2023/12/04 04:00:22;;;;;;;9.00;4.77;;;;;;;;;;6173042;23;20434;-88
2023/12/04 04:03:03;;;;;;;10.77;7.40;;;;;;;;;;6173952;23;20425;-87
2023/12/04 04:05:34;;;;;;;10.07;7.07;;;;;;;;;;6174908;23;20412;-89
2023/12/04 04:08:14;;;;;;;8.63;6.97;;;;;;;;;;6176131;23;20422;-87
2023/12/04 04:10:51;;;;;;;10.73;7.37;;;;;;;;;;6175648;23;20457;-87
2023/12/04 04:13:25;;;;;;;11.03;7.77;;;;;;;;;;6175116;23;20477;-87
2023/12/04 04:15:53;;;;;;;10.43;6.70;;;;;;;;;;6174788;23;20435;-86
2023/12/04 04:18:26;;;;;;;6.30;4.10;;;;;;;;;;6173138;23;20434;-85
2023/12/04 04:20:56;;;;;;;8.50;7.17;;;;;;;;;;6175118;23;20489;-88
2023/12/04 04:23:28;;;;;;;12.10;7.97;;;;;;;;;;6175625;23;20406;-87
2023/12/04 04:25:56;;;;;;;8.70;7.03;;;;;;;;;;6174829;23;20450;-87
2023/12/04 04:28:29;;;;;;;9.67;6.90;;;;;;;;;;6173692;23;20391;-86
2023/12/04 04:30:59;;;;;;;9.77;7.40;;;;;;;;;;6173954;23;20426;-88
2023/12/04 04:33:34;;;;;;;10.07;6.33;;;;;;;;;;6173483;23;20978;-87
2023/12/04 04:36:13;;;;;;;9.30;7.23;;;;;;;;;;6174215;23;20426;-88
2023/12/04 04:39:03;;;;;;;9.73;7.20;;;;;;;;;;6172961;23;20395;-89
2023/12/04 04:41:41;;;;;;;10.73;7.57;;;;;;;;;;6173136;23;20418;-90
2023/12/04 04:44:13;;;;;;;12.43;8.47;;;;;;;;;;6173609;23;20453;-88
2023/12/04 04:46:45;;;;;;;10.23;7.97;;;;;;;;;;6170725;23;20405;-87
2023/12/04 04:52:13;;;;;;;13.93;8.20;;;;;;;;;;6173678;23;20500;-87
2023/12/04 04:55:20;;;;;;;9.37;6.43;;;;;;;;;;6178457;23;20951;-87
2023/12/04 04:58:10;;;;;;;11.73;7.37;;;;;;;;;;6204606;23;20468;-88
2023/12/04 05:00:42;;;;;;;10.63;7.73;;;;;;;;;;6177390;23;20434;-87
2023/12/04 05:03:11;;;;;;;11.50;8.40;;;;;;;;;;6175247;23;20414;-88
2023/12/04 05:05:51;;;;;;;8.67;6.87;;;;;;;;;;6172288;23;20413;-87
2023/12/04 05:08:43;;;;;;;8.03;7.20;;;;;;;;;;6168838;23;20417;-87
2023/12/04 05:11:18;;;;;;;12.27;7.20;;;;;;;;;;6170489;23;20430;-88
2023/12/04 05:13:55;;;;;;;9.20;6.33;;;;;;;;;;6194342;23;20977;-86
2023/12/04 05:16:39;;;;;;;10.20;7.20;;;;;;;;;;6166543;23;20503;-87
2023/12/04 05:19:09;;;;;;;9.10;7.80;;;;;;;;;;6172040;23;20953;-89
2023/12/04 05:22:02;;;;;;;13.33;8.37;;;;;;;;;;6169856;23;20405;-87
2023/12/04 05:24:46;;;;;;;11.10;8.13;;;;;;;;;;6172568;23;20402;-88
2023/12/04 05:27:30;;;;;;;13.27;8.40;;;;;;;;;;6173465;23;20402;-89
2023/12/04 05:29:58;;;;;;;10.37;6.40;;;;;;;;;;6171751;23;20457;-86
2023/12/04 05:32:29;;;;;;;12.67;7.90;;;;;;;;;;6171919;23;20413;-88
2023/12/04 05:35:05;;;;;;;11.70;7.33;;;;;;;;;;6170974;23;20409;-87
2023/12/04 05:37:33;;;;;;;12.00;7.27;;;;;;;;;;6169635;23;20425;-88
2023/12/04 05:40:04;;;;;;;11.87;7.50;;;;;;;;;;6173631;23;20418;-86
2023/12/04 05:42:39;;;;;;;10.07;7.27;;;;;;;;;;6178051;23;20421;-88
2023/12/04 05:45:14;;;;;;;11.67;7.23;;;;;;;;;;6179093;23;20386;-87
2023/12/04 05:47:48;;;;;;;10.97;8.33;;;;;;;;;;6180938;23;20468;-87
2023/12/04 05:50:26;;;;;;;13.83;7.40;;;;;;;;;;6178384;23;20425;-89
2023/12/04 05:53:01;;;;;;;13.40;9.57;;;;;;;;;;6178545;23;20394;-88
2023/12/04 05:55:31;;;;;;;14.07;9.80;;;;;;;;;;6177705;23;20425;-88
2023/12/04 05:58:07;;;;;;;15.70;8.60;;;;;;;;;;6163453;23;20472;-89
2023/12/04 06:00:40;;;;;;;12.33;9.20;;;;;;;;;;6180332;23;20417;-88
2023/12/04 06:03:13;;;;;;;11.03;7.60;;;;;;;;;;6204253;23;20464;-88
2023/12/04 06:05:50;;;;;;;14.47;9.00;;;;;;;;;;6205016;23;20437;-89
2023/12/04 06:08:22;;;;;;;21.60;13.63;;;;;;;;;;6178127;23;20441;-89
2023/12/04 06:10:51;;;;;;;12.37;9.03;;;;;;;;;;6202197;23;20449;-88
2023/12/04 06:13:18;;;;;;;13.50;8.67;;;;;;;;;;6201824;23;20406;-88
2023/12/04 06:15:54;;;;;;;13.20;9.93;;;;;;;;;;6204460;23;20517;-88
2023/12/04 06:18:27;;;;;;;9.27;5.20;;;;;;;;;;6204051;23;20397;-86
2023/12/04 06:21:00;;;;;;;11.20;8.87;;;;;;;;;;6204244;23;20457;-86
2023/12/04 06:39:23;;;;;;;14.23;8.90;;;;;;;;;;6182498;23;20450;-87
2023/12/04 06:41:54;;;;;;;14.13;9.17;;;;;;;;;;6204717;23;20474;-89
2023/12/04 06:44:25;;;;;;;11.70;6.57;;;;;;;;;;6203028;23;20410;-87
2023/12/04 06:47:02;;;;;;;12.47;7.50;;;;;;;;;;6205023;23;20402;-88
2023/12/04 06:50:14;;;;;;;;;;;;;;;;;;;;;
2023/12/04 06:53:08;;;;;;;13.10;9.20;;;;;;;;;;6086927;23;20485;-87
2023/12/04 06:58:24;;;;;;;12.13;8.97;;;;;;;;;;6201786;23;20434;-86
2023/12/04 07:01:06;;;;;;;13.47;8.63;;;;;;;;;;6182269;23;20468;-89
2023/12/04 07:03:36;;;;;;;17.10;9.40;;;;;;;;;;6204751;23;20414;-88
2023/12/04 07:06:19;;;;;;;16.20;9.33;;;;;;;;;;6203936;23;20401;-86
2023/12/04 07:09:00;;;;;;;13.67;9.20;;;;;;;;;;6204010;23;20397;-89
2023/12/04 07:11:46;;;;;;;15.57;9.97;;;;;;;;;;6205525;23;20394;-89
2023/12/04 07:14:48;;;;;;;13.67;8.70;;;;;;;;;;6206199;23;20455;-87
2023/12/04 07:17:26;;;;;;;13.40;10.07;;;;;;;;;;6204580;23;20456;-88
2023/12/04 07:20:23;;;;;;;6.43;5.63;;;;;;;;;;6181449;23;20412;-89
2023/12/04 07:23:07;;;;;;;14.27;9.40;;;;;;;;;;6203782;23;20405;-86
2023/12/04 07:25:46;;;;;;;12.40;8.23;;;;;;;;;;6204584;23;20441;-86
2023/12/04 07:28:27;;;;;;;16.20;9.07;;;;;;;;;;6201571;23;20386;-86
2023/12/04 07:31:03;;;;;;;8.47;6.30;;;;;;;;;;6202218;23;20472;-89
2023/12/04 07:33:42;;;;;;;12.60;8.47;;;;;;;;;;6201361;23;20405;-86
2023/12/04 07:36:12;;;;;;;10.53;8.17;;;;;;;;;;6202444;23;20378;-87
2023/12/04 07:38:54;;;;;;;13.83;9.23;;;;;;;;;;6202300;23;20405;-88
2023/12/04 07:41:29;;;;;;;11.70;7.30;;;;;;;;;;6201773;23;20508;-87
2023/12/04 07:44:30;;;;;;;12.27;8.53;;;;;;;;;;6203925;23;20428;-87
2023/12/04 07:47:04;;;;;;;9.47;6.20;;;;;;;;;;6201815;23;20390;-88
2023/12/04 07:50:04;;;;;;;12.00;8.00;;;;;;;;;;6201198;23;20465;-87
2023/12/04 07:52:50;;;;;;;11.10;7.73;;;;;;;;;;6202023;23;20425;-89
2023/12/04 07:55:21;;;;;;;10.73;7.53;;;;;;;;;;6202495;23;20408;-88
2023/12/04 07:57:53;;;;;;;9.27;7.57;;;;;;;;;;6202492;23;20434;-88
2023/12/04 08:00:27;;;;;;;10.20;6.30;;;;;;;;;;6201228;23;20533;-86
2023/12/04 08:03:00;;;;;;;11.37;7.93;;;;;;;;;;6202016;23;20476;-85
2023/12/04 08:05:32;;;;;;;9.30;6.80;;;;;;;;;;6200965;23;20470;-88
2023/12/04 08:08:05;;;;;;;5.07;3.90;;;;;;;;;;6201811;23;20884;-88
2023/12/04 08:10:36;;;;;;;11.13;7.63;;;;;;;;;;6201729;23;20500;-87
2023/12/04 08:13:13;;;;;;;7.10;5.43;;;;;;;;;;6201040;23;20433;-87
2023/12/04 08:15:54;;;;;;;13.27;8.23;;;;;;;;;;6204053;23;20403;-87
2023/12/04 08:18:24;;;;;;;8.60;7.27;;;;;;;;;;6203663;23;20464;-86
2023/12/04 08:20:58;;;;;;;11.30;7.47;;;;;;;;;;6204102;23;20437;-87
2023/12/04 08:23:33;;;;;;;10.77;7.20;;;;;;;;;;6203709;23;20409;-86
2023/12/04 08:26:01;;;;;;;11.00;7.00;;;;;;;;;;6202382;23;20408;-88
2023/12/04 08:28:36;;;;;;;12.20;8.60;;;;;;;;;;6203834;23;20414;-88
2023/12/04 08:31:11;;;;;;;14.27;8.90;;;;;;;;;;6204472;23;20641;-87
2023/12/04 08:33:57;;;;;;;11.00;8.07;;;;;;;;;;6197288;23;20473;-87
2023/12/04 08:36:28;;;;;;;13.23;9.20;;;;;;;;;;6191904;23;20405;-88
2023/12/04 08:39:10;;;;;;;10.00;7.60;;;;;;;;;;6202201;23;20441;-88
2023/12/04 08:42:02;;;;;;;6.53;5.30;;;;;;;;;;6204205;23;20414;-86
2023/12/04 08:44:47;;;;;;;10.67;7.43;;;;;;;;;;6205123;23;20404;-88
2023/12/04 08:47:24;;;;;;;12.33;7.90;;;;;;;;;;6203758;23;20418;-87
2023/12/04 08:49:54;;;;;;;12.87;7.60;;;;;;;;;;6203796;23;20426;-87
2023/12/04 08:52:27;;;;;;;10.90;6.97;;;;;;;;;;6203661;23;20444;-88
2023/12/04 08:55:04;;;;;;;12.10;6.60;;;;;;;;;;6203530;23;20393;-87
2023/12/04 08:57:40;;;;;;;10.30;7.40;;;;;;;;;;6192796;23;20534;-86
2023/12/04 09:04:09;;;;;;;14.07;8.37;;;;;;;;;;6106449;23;20425;-87
2023/12/04 09:06:48;;;;;;;10.27;7.57;;;;;;;;;;6203248;23;20406;-87
2023/12/04 09:09:33;;;;;;;12.17;8.23;;;;;;;;;;6201953;23;21121;-89
2023/12/04 09:12:08;;;;;;;14.83;9.30;;;;;;;;;;6203617;23;20398;-88
2023/12/04 09:14:44;;;;;;;13.37;7.90;;;;;;;;;;6203600;23;20413;-87
2023/12/04 09:17:16;;;;;;;8.57;6.23;;;;;;;;;;6203832;23;20437;-89
2023/12/04 09:19:44;;;;;;;10.43;7.70;;;;;;;;;;6204022;23;20418;-86
2023/12/04 09:22:15;;;;;;;6.67;4.63;;;;;;;;;;6203713;23;20497;-86
2023/12/04 09:24:45;;;;;;;10.90;6.80;;;;;;;;;;6204592;23;20401;-87
2023/12/04 09:27:16;;;;;;;9.20;5.63;;;;;;;;;;6203685;23;20420;-88
2023/12/04 09:29:52;;;;;;;9.50;5.83;;;;;;;;;;6204666;23;20509;-86
2023/12/04 09:32:20;;;;;;;13.63;6.83;;;;;;;;;;6205171;23;20412;-85
2023/12/04 09:34:55;;;;;;;9.23;5.77;;;;;;;;;;6205916;23;20402;-86
2023/12/04 09:37:23;;;;;;;11.87;7.50;;;;;;;;;;6205520;23;20434;-86
2023/12/04 09:40:24;;;;;;;11.00;6.30;;;;;;;;;;6176931;23;20434;-86
2023/12/04 09:42:54;;;;;;;11.97;7.87;;;;;;;;;;6204632;23;20421;-87
2023/12/04 09:45:25;;;;;;;9.43;5.70;;;;;;;;;;6207152;23;20394;-87
2023/12/04 09:47:56;;;;;;;13.27;7.70;;;;;;;;;;6191725;23;20478;-86
2023/12/04 09:50:34;;;;;;;9.83;7.00;;;;;;;;;;6205818;23;20425;-86
2023/12/04 09:53:13;;;;;;;10.70;7.57;;;;;;;;;;6205522;23;20476;-88
2023/12/04 09:55:43;;;;;;;10.67;6.63;;;;;;;;;;6205391;23;20386;-89
2023/12/04 09:58:19;;;;;;;10.87;7.20;;;;;;;;;;6205460;23;20426;-86
2023/12/04 10:01:13;;;;;;;10.83;6.13;;;;;;;;;;6206689;23;20428;-88
2023/12/04 10:04:05;;;;;;;9.17;7.37;;;;;;;;;;6197341;23;20388;-88
2023/12/04 10:06:50;;;;;;;9.93;7.10;;;;;;;;;;6204341;23;20404;-88
2023/12/04 10:09:22;;;;;;;8.90;7.03;;;;;;;;;;6206661;23;20394;-88
2023/12/04 10:12:03;;;;;;;7.40;6.60;;;;;;;;;;6199862;23;20505;-89
2023/12/04 10:14:33;;;;;;;10.53;6.13;;;;;;;;;;6205738;23;20404;-87
2023/12/04 10:17:18;;;;;;;8.27;4.87;;;;;;;;;;6205192;23;20433;-87
2023/12/04 10:20:11;;;;;;;9.03;6.27;;;;;;;;;;6198877;23;20485;-87
2023/12/04 10:23:23;;;;;;;8.83;6.60;;;;;;;;;;6184143;23;20409;-87
2023/12/04 10:26:00;;;;;;;9.77;5.30;;;;;;;;;;6059233;23;20417;-88
2023/12/04 10:28:47;;;;;;;10.40;6.83;;;;;;;;;;6099758;23;20405;-85
2023/12/04 10:34:22;;;;;;;10.53;7.17;;;;;;;;;;6237072;22;20417;-88
2023/12/04 10:37:23;;;;;;;9.47;6.03;;;;;;;;;;6193850;22;20491;-85
2023/12/04 10:40:26;;;;;;;10.80;5.70;;;;;;;;;;6196385;23;20444;-88
2023/12/04 10:43:18;;;;;;;8.77;5.60;;;;;;;;;;6180343;23;20401;-87
2023/12/04 10:46:00;;;;;;;10.20;6.87;;;;;;;;;;6205878;23;20404;-89
2023/12/04 10:51:18;;;;;;;9.97;6.00;;;;;;;;;;6199461;23;20505;-89
2023/12/04 10:53:56;;;;;;;10.10;6.17;;;;;;;;;;6205918;23;20405;-88
2023/12/04 10:57:22;;;;;;;10.83;4.93;;;;;;;;;;6203165;23;20394;-89
2023/12/04 11:02:56;;;;;;;9.23;5.90;;;;;;;;;;6193634;23;20429;-86
2023/12/04 11:05:33;;;;;;;8.80;6.90;;;;;;;;;;6181134;23;20405;-89
2023/12/04 11:08:12;;;;;;;12.27;6.50;;;;;;;;;;6179828;23;20390;-88
2023/12/04 11:11:17;;;;;;;13.20;7.30;;;;;;;;;;6183966;23;20421;-88
2023/12/04 11:14:02;;;;;;;11.00;7.60;;;;;;;;;;6204511;23;20709;-90
2023/12/04 11:17:07;;;;;;;9.40;6.40;;;;;;;;;;6200001;23;20394;-88
2023/12/04 11:20:18;;;;;;;9.60;6.43;;;;;;;;;;6181585;23;20456;-88
2023/12/04 11:23:06;;;;;;;8.77;6.87;;;;;;;;;;6064027;23;20434;-88
2023/12/04 11:25:51;;;;;;;8.40;6.70;;;;;;;;;;6167987;23;20420;-87
2023/12/04 11:28:45;;;;;;;9.37;6.63;;;;;;;;;;6204098;23;20386;-87
2023/12/04 11:31:21;;;;;;;9.97;6.40;;;;;;;;;;6203609;23;20452;-86
2023/12/04 11:34:17;;;;;;;7.67;5.80;;;;;;;;;;6204921;23;20424;-86
2023/12/04 11:37:03;;;;;;;9.93;7.57;;;;;;;;;;6180714;23;20521;-86
2023/12/04 11:39:56;;;;;;;7.73;6.50;;;;;;;;;;6204812;23;20515;-88
2023/12/04 11:42:33;;;;;;;11.03;7.23;;;;;;;;;;6204267;23;20448;-88
2023/12/04 11:45:04;;;;;;;11.53;7.53;;;;;;;;;;6206569;23;20441;-87
2023/12/04 11:48:08;;;;;;;10.17;7.30;;;;;;;;;;6170736;23;20404;-87
2023/12/04 11:50:53;;;;;;;10.63;7.20;;;;;;;;;;6203835;23;20477;-86
2023/12/04 11:53:57;;;;;;;;;;;;;;;;;;;;;
2023/12/04 11:56:39;;;;;;;12.33;7.80;;;;;;;;;;6186198;23;20389;-85
2023/12/04 11:59:15;;;;;;;16.33;7.13;;;;;;;;;;6207612;23;20440;-88
2023/12/04 12:01:54;;;;;;;7.80;6.70;;;;;;;;;;6206836;23;20394;-87
2023/12/04 12:04:28;;;;;;;13.67;9.47;;;;;;;;;;6199333;23;20437;-88
2023/12/04 12:07:22;;;;;;;10.07;7.43;;;;;;;;;;6206812;23;20444;-88
2023/12/04 12:10:20;;;;;;;12.37;7.77;;;;;;;;;;6199882;23;20422;-87
2023/12/04 12:12:56;;;;;;;11.10;7.67;;;;;;;;;;6206361;23;20405;-89
2023/12/04 12:15:46;;;;;;;9.63;6.63;;;;;;;;;;6174097;23;20393;-87
2023/12/04 12:18:20;;;;;;;13.00;8.47;;;;;;;;;;6206421;23;20441;-86
2023/12/04 12:20:50;;;;;;;10.40;7.50;;;;;;;;;;6205117;23;20428;-87
2023/12/04 12:23:24;;;;;;;13.03;8.63;;;;;;;;;;6206500;23;20414;-87
2023/12/04 12:25:57;;;;;;;13.10;7.63;;;;;;;;;;6206506;23;20404;-87
2023/12/04 12:28:37;;;;;;;10.87;7.17;;;;;;;;;;6206932;23;20409;-85
2023/12/04 12:31:18;;;;;;;15.53;7.57;;;;;;;;;;6205886;23;20425;-89
2023/12/04 12:34:04;;;;;;;7.40;5.60;;;;;;;;;;6186390;23;20689;-86
2023/12/04 12:37:02;;;;;;;9.50;6.60;;;;;;;;;;6206380;23;20536;-86
2023/12/04 12:40:01;;;;;;;;;;;;;;;;;;;;;
2023/12/04 12:42:48;;;;;;;14.27;7.83;;;;;;;;;;6183317;23;20480;-87
2023/12/04 12:45:52;;;;;;;9.70;6.90;;;;;;;;;;6205434;23;20456;-89
2023/12/04 12:48:24;;;;;;;9.93;5.40;;;;;;;;;;6204167;23;20414;-87
2023/12/04 12:51:11;;;;;;;10.07;7.47;;;;;;;;;;6202889;23;20444;-86
2023/12/04 12:53:57;;;;;;;9.83;7.40;;;;;;;;;;6206446;23;20479;-86
2023/12/04 12:57:01;;;;;;;14.97;7.33;;;;;;;;;;6205411;23;20390;-87
2023/12/04 13:08:05;;;;;;;8.27;5.50;;;;;;;;;;6169356;23;20443;-86
2023/12/04 13:14:32;;;;;;;13.10;8.33;;;;;;;;;;6035804;23;20415;-86
2023/12/04 13:17:09;;;;;;;10.50;6.87;;;;;;;;;;6034474;23;20390;-84
2023/12/04 13:20:13;;;;;;;12.70;7.70;;;;;;;;;;6159644;23;20462;-88
2023/12/04 13:23:02;;;;;;;10.70;7.87;;;;;;;;;;6182315;23;20502;-86
2023/12/04 13:25:49;;;;;;;8.90;7.00;;;;;;;;;;6178117;23;20444;-86
2023/12/04 13:28:19;;;;;;;8.70;6.50;;;;;;;;;;6179478;23;20394;-86
2023/12/04 13:30:56;;;;;;;15.93;9.33;;;;;;;;;;6181827;23;20421;-87
2023/12/04 13:33:49;;;;;;;14.17;8.70;;;;;;;;;;6181795;23;20484;-86
2023/12/04 13:36:40;;;;;;;8.27;6.33;;;;;;;;;;6206814;23;20398;-86
2023/12/04 13:39:27;;;;;;;14.07;8.33;;;;;;;;;;6184043;23;20425;-88
2023/12/04 13:47:59;;;;;;;12.67;8.50;;;;;;;;;;6190836;23;20413;-86
2023/12/04 13:54:01;;;;;;;10.47;7.37;;;;;;;;;;6127489;23;20408;-86
2023/12/04 13:56:46;;;;;;;11.13;6.80;;;;;;;;;;6146028;23;20395;-87
2023/12/04 13:59:21;;;;;;;10.00;6.93;;;;;;;;;;6123489;23;20820;-86
2023/12/04 14:02:10;;;;;;;12.83;8.03;;;;;;;;;;6122468;23;20403;-87
2023/12/04 14:05:08;;;;;;;8.13;5.97;;;;;;;;;;6123242;23;20408;-87
2023/12/04 14:08:04;;;;;;;8.90;6.00;;;;;;;;;;6177492;23;20434;-86
2023/12/04 14:14:09;;;;;;;9.07;5.80;;;;;;;;;;6193471;23;20408;-87
2023/12/04 14:17:04;;;;;;;8.10;6.10;;;;;;;;;;6204518;23;20468;-89
2023/12/04 14:19:58;;;;;;;9.57;6.40;;;;;;;;;;6206386;23;20472;-87
2023/12/04 14:22:37;;;;;;;8.37;5.60;;;;;;;;;;6180953;23;20485;-87
2023/12/04 14:25:12;;;;;;;8.93;5.93;;;;;;;;;;6182101;23;20421;-89
2023/12/04 14:27:50;;;;;;;5.70;4.77;;;;;;;;;;6170938;23;20437;-87
2023/12/04 14:30:27;;;;;;;9.47;7.03;;;;;;;;;;6178755;23;20417;-88
2023/12/04 14:32:54;;;;;;;8.93;5.80;;;;;;;;;;6201598;23;20410;-86
2023/12/04 14:35:25;;;;;;;4.73;4.30;;;;;;;;;;6202537;23;20456;-89
2023/12/04 14:37:59;;;;;;;8.33;6.30;;;;;;;;;;6202109;23;20429;-89
2023/12/04 14:40:37;;;;;;;9.80;5.50;;;;;;;;;;6201461;23;20426;-88
2023/12/04 14:43:24;;;;;;;6.77;5.40;;;;;;;;;;6201896;23;20422;-88
2023/12/04 14:45:54;;;;;;;6.77;5.80;;;;;;;;;;6200781;23;20449;-88
2023/12/04 14:48:30;;;;;;;7.13;5.73;;;;;;;;;;6202535;23;20426;-87
2023/12/04 14:51:02;;;;;;;6.73;4.93;;;;;;;;;;6202553;23;20433;-88
2023/12/04 14:54:03;;;;;;;7.60;5.83;;;;;;;;;;6202523;23;20393;-88
2023/12/04 15:05:40;;;;;;;5.60;5.10;;;;;;;;;;6203521;23;20409;-87
2023/12/04 15:16:35;;;;;;;6.13;5.20;;;;;;;;;;6203564;23;20402;-86
2023/12/04 15:22:17;;;;;;;12.20;6.60;;;;;;;;;;6202000;23;20975;-90
2023/12/04 15:24:53;;;;;;;8.63;6.80;;;;;;;;;;6203557;23;20669;-84
2023/12/04 15:31:23;;;;;;;4.93;4.43;;;;;;;;;;6113818;23;20399;-88
2023/12/04 15:34:56;;;;;;;;;;;;;;;;;;;;;
2023/12/04 15:38:01;;;;;;;5.70;4.60;;;;;;;;;;5948451;23;20475;-88
2023/12/04 15:43:48;;;;;;;6.93;5.43;;;;;;;;;;6200318;23;20433;-87
2023/12/04 15:54:33;;;;;;;;;;;;;;;;;;;;;
2023/12/04 16:38:43;;;;;;;10.57;6.57;;;;;;;;;;6150193;23;20545;-89
2023/12/04 16:41:49;;;;;;;7.70;6.00;;;;;;;;;;6062900;23;20418;-89
2023/12/04 16:55:08;;;;;;;;;;;;;;;;;;;;;
2023/12/04 16:57:48;;;;;;;10.77;6.60;;;;;;;;;;6037140;23;20792;-89
2023/12/04 17:00:16;;;;;;;10.30;6.30;;;;;;;;;;6055207;23;20426;-88
2023/12/04 17:02:47;;;;;;;9.10;6.63;;;;;;;;;;6055860;23;20434;-88
2023/12/04 17:05:16;;;;;;;10.03;6.17;;;;;;;;;;6055623;23;20414;-87
2023/12/04 17:07:51;;;;;;;8.33;6.93;;;;;;;;;;6051618;23;20411;-86
2023/12/04 17:10:28;;;;;;;8.90;6.70;;;;;;;;;;6099929;23;20436;-87
2023/12/04 17:13:12;;;;;;;5.53;4.80;;;;;;;;;;6081984;23;20401;-87
2023/12/04 17:15:44;;;;;;;8.17;6.50;;;;;;;;;;6085755;23;20421;-86
2023/12/04 17:18:14;;;;;;;10.10;6.80;;;;;;;;;;6085749;23;20421;-88
2023/12/04 17:20:42;;;;;;;8.87;7.43;;;;;;;;;;6085141;23;20502;-87
2023/12/04 17:23:21;;;;;;;10.50;6.70;;;;;;;;;;6084192;23;20421;-88
2023/12/04 17:25:55;;;;;;;10.67;6.50;;;;;;;;;;6139303;23;20402;-90
2023/12/04 17:28:41;;;;;;;11.07;7.27;;;;;;;;;;6147406;23;20403;-88
2023/12/04 17:31:11;;;;;;;8.53;7.37;;;;;;;;;;6146177;23;20445;-86
2023/12/04 17:33:42;;;;;;;7.30;6.00;;;;;;;;;;6145109;23;20434;-88
2023/12/04 17:36:40;;;;;;;10.90;8.27;;;;;;;;;;6153822;23;20403;-88
2023/12/04 17:39:16;;;;;;;9.50;6.83;;;;;;;;;;6150241;23;20441;-88
2023/12/04 17:41:54;;;;;;;10.83;6.40;;;;;;;;;;6149706;23;20406;-88
2023/12/04 17:44:28;;;;;;;7.27;5.73;;;;;;;;;;6148735;23;20430;-88
2023/12/04 17:46:59;;;;;;;8.30;6.47;;;;;;;;;;6148397;23;20415;-88
2023/12/04 17:49:46;;;;;;;4.90;4.37;;;;;;;;;;6149947;23;20427;-88
2023/12/04 17:52:21;;;;;;;4.07;3.63;;;;;;;;;;6174173;23;20398;-86
2023/12/04 17:54:59;;;;;;;9.03;6.63;;;;;;;;;;6190721;22;20460;-88
2023/12/04 17:57:35;;;;;;;6.87;4.90;;;;;;;;;;6232689;22;20405;-88
2023/12/04 18:00:09;;;;;;;9.03;7.33;;;;;;;;;;6216962;22;20485;-87
2023/12/04 18:03:32;;;;;;;5.73;5.23;;;;;;;;;;6224568;22;20390;-90
2023/12/04 18:16:55;;;;;;;11.60;8.00;;;;;;;;;;6215707;23;20535;-88
2023/12/04 18:19:30;;;;;;;10.73;7.67;;;;;;;;;;6223420;22;20843;-88
2023/12/04 18:22:03;;;;;;;7.77;4.20;;;;;;;;;;6223383;23;20406;-88
2023/12/04 18:25:06;;;;;;;10.97;8.20;;;;;;;;;;6221965;23;20402;-87
2023/12/04 18:27:34;;;;;;;9.00;6.83;;;;;;;;;;6197448;23;20783;-87
2023/12/04 18:30:09;;;;;;;12.40;9.73;;;;;;;;;;6223452;23;20433;-85
2023/12/04 18:32:41;;;;;;;6.90;5.60;;;;;;;;;;6223462;22;20425;-88
2023/12/04 18:35:18;;;;;;;11.77;8.17;;;;;;;;;;6223923;22;20416;-88
2023/12/04 18:37:55;;;;;;;11.53;8.00;;;;;;;;;;6223292;22;20488;-89
2023/12/04 18:40:24;;;;;;;9.87;8.43;;;;;;;;;;6222580;23;20524;-88
2023/12/04 18:42:59;;;;;;;10.83;8.40;;;;;;;;;;6221340;23;20412;-90
2023/12/04 18:45:30;;;;;;;11.80;7.23;;;;;;;;;;6222830;23;20408;-89
2023/12/04 18:48:01;;;;;;;11.07;7.47;;;;;;;;;;6224840;22;20394;-90
2023/12/04 18:50:39;;;;;;;13.93;8.67;;;;;;;;;;6221571;23;20450;-86
2023/12/04 18:53:16;;;;;;;12.37;7.80;;;;;;;;;;6221755;23;20414;-90
2023/12/04 18:55:52;;;;;;;10.57;7.70;;;;;;;;;;6222274;23;20489;-89
2023/12/04 18:58:21;;;;;;;11.77;8.37;;;;;;;;;;6222499;22;20721;-87
2023/12/04 19:00:49;;;;;;;6.80;4.90;;;;;;;;;;6199594;23;20429;-89
2023/12/04 19:03:22;;;;;;;8.73;6.90;;;;;;;;;;6224669;22;20410;-88
2023/12/04 19:05:53;;;;;;;10.57;7.27;;;;;;;;;;6226202;22;20402;-89
2023/12/04 19:08:22;;;;;;;8.80;6.57;;;;;;;;;;6222150;22;20398;-90
2023/12/04 19:10:56;;;;;;;10.37;8.20;;;;;;;;;;6223498;23;20489;-86
2023/12/04 19:13:24;;;;;;;8.60;7.30;;;;;;;;;;6218414;23;20454;-88
2023/12/04 19:15:59;;;;;;;10.07;8.53;;;;;;;;;;6224783;22;21257;-89
2023/12/04 19:18:26;;;;;;;10.43;7.80;;;;;;;;;;6224684;22;20452;-87
2023/12/04 19:20:58;;;;;;;11.67;8.00;;;;;;;;;;6222812;23;20921;-88
2023/12/04 19:23:29;;;;;;;11.27;8.40;;;;;;;;;;6222203;23;20420;-88
2023/12/04 19:26:07;;;;;;;9.03;6.40;;;;;;;;;;6222508;22;20421;-88
2023/12/04 19:28:39;;;;;;;11.30;8.20;;;;;;;;;;6201073;23;20402;-87
2023/12/04 19:31:36;;;;;;;9.23;7.03;;;;;;;;;;6224875;22;20516;-88
2023/12/04 19:34:33;;;;;;;13.00;8.50;;;;;;;;;;6194809;23;20428;-87
2023/12/04 19:37:08;;;;;;;10.63;7.93;;;;;;;;;;6229592;22;20424;-86
2023/12/04 19:40:03;;;;;;;9.80;7.27;;;;;;;;;;6204649;23;20446;-88
2023/12/04 19:42:38;;;;;;;7.50;6.40;;;;;;;;;;6226010;23;20422;-88
2023/12/04 19:45:17;;;;;;;11.30;8.20;;;;;;;;;;6223844;23;20406;-88
2023/12/04 19:47:55;;;;;;;10.90;7.10;;;;;;;;;;6224002;22;20397;-88
2023/12/04 19:50:31;;;;;;;10.37;8.50;;;;;;;;;;6225521;23;20441;-86
2023/12/04 19:53:05;;;;;;;10.00;7.23;;;;;;;;;;6224624;23;20427;-86
2023/12/04 19:55:35;;;;;;;9.13;7.00;;;;;;;;;;6225299;22;20398;-88
2023/12/04 19:58:14;;;;;;;9.50;7.33;;;;;;;;;;6224314;22;20437;-86
2023/12/04 20:00:44;;;;;;;11.07;7.37;;;;;;;;;;6202159;23;20468;-87
2023/12/04 20:03:31;;;;;;;9.37;6.93;;;;;;;;;;6226786;22;20398;-89
2023/12/04 20:06:05;;;;;;;9.07;7.20;;;;;;;;;;6227424;22;20462;-89
2023/12/04 20:08:37;;;;;;;9.97;7.83;;;;;;;;;;6230422;22;20401;-88
2023/12/04 20:25:17;;;;;;;11.47;7.37;;;;;;;;;;6207747;23;20389;-87
2023/12/04 20:27:59;;;;;;;7.87;7.07;;;;;;;;;;6181604;23;20579;-89
2023/12/04 20:30:31;;;;;;;9.97;7.93;;;;;;;;;;6178313;23;20433;-90
2023/12/04 20:32:59;;;;;;;6.40;5.37;;;;;;;;;;6181385;23;20409;-88
2023/12/04 20:35:40;;;;;;;13.70;8.70;;;;;;;;;;6179782;23;20402;-89
2023/12/04 20:38:13;;;;;;;11.30;7.90;;;;;;;;;;6182100;23;20408;-88
2023/12/04 20:40:43;;;;;;;10.57;8.30;;;;;;;;;;6178815;23;20458;-88
2023/12/04 20:43:14;;;;;;;12.20;8.47;;;;;;;;;;6204602;23;20437;-86
2023/12/04 20:45:55;;;;;;;9.30;7.90;;;;;;;;;;6158236;23;20401;-88
2023/12/04 21:03:56;;;;;;;13.20;8.17;;;;;;;;;;6204233;23;20432;-90